sensor_id;sensor_type;location;lat;lon;timestamp;P1;durP1;ratioP1;P2;durP2;ratioP2
34491;SDS011;20737;49.908;8.126;2023-02-22T00:00:13;17.43;;;8.67;;
34491;SDS011;20737;49.908;8.126;2023-02-22T00:02:53;18.60;;;8.47;;
34491;SDS011;20737;49.908;8.126;2023-02-22T00:05:24;16.20;;;8.77;;
34491;SDS011;20737;49.908;8.126;2023-02-22T00:07:53;13.53;;;7.60;;
34491;SDS011;20737;49.908;8.126;2023-02-22T00:10:20;17.33;;;7.97;;
34491;SDS011;20737;49.908;8.126;2023-02-22T00:12:48;17.30;;;8.20;;
34491;SDS011;20737;49.908;8.126;2023-02-22T00:15:21;16.90;;;8.50;;
34491;SDS011;20737;49.908;8.126;2023-02-22T00:17:51;17.63;;;8.40;;
34491;SDS011;20737;49.908;8.126;2023-02-22T00:20:18;14.07;;;8.17;;
34491;SDS011;20737;49.908;8.126;2023-02-22T00:22:50;15.40;;;8.07;;
34491;SDS011;20737;49.908;8.126;2023-02-22T00:25:19;17.53;;;8.23;;
34491;SDS011;20737;49.908;8.126;2023-02-22T00:27:49;14.97;;;7.47;;
34491;SDS011;20737;49.908;8.126;2023-02-22T00:30:18;18.70;;;8.40;;
34491;SDS011;20737;49.908;8.126;2023-02-22T00:32:51;14.95;;;7.80;;
34491;SDS011;20737;49.908;8.126;2023-02-22T00:35:21;21.63;;;8.70;;
34491;SDS011;20737;49.908;8.126;2023-02-22T00:37:50;14.17;;;7.60;;
34491;SDS011;20737;49.908;8.126;2023-02-22T00:40:20;16.47;;;8.57;;
34491;SDS011;20737;49.908;8.126;2023-02-22T00:42:48;14.80;;;8.37;;
34491;SDS011;20737;49.908;8.126;2023-02-22T00:45:16;17.97;;;8.63;;
34491;SDS011;20737;49.908;8.126;2023-02-22T00:47:45;17.20;;;8.33;;
34491;SDS011;20737;49.908;8.126;2023-02-22T00:50:12;13.57;;;7.60;;
34491;SDS011;20737;49.908;8.126;2023-02-22T00:52:39;17.37;;;8.57;;
34491;SDS011;20737;49.908;8.126;2023-02-22T00:55:07;17.37;;;8.47;;
34491;SDS011;20737;49.908;8.126;2023-02-22T00:57:37;14.77;;;7.60;;
34491;SDS011;20737;49.908;8.126;2023-02-22T01:00:06;20.73;;;9.40;;
34491;SDS011;20737;49.908;8.126;2023-02-22T01:02:36;20.07;;;9.23;;
34491;SDS011;20737;49.908;8.126;2023-02-22T01:05:03;17.87;;;8.90;;
34491;SDS011;20737;49.908;8.126;2023-02-22T01:07:31;20.47;;;9.27;;
34491;SDS011;20737;49.908;8.126;2023-02-22T01:10:01;16.67;;;9.43;;
34491;SDS011;20737;49.908;8.126;2023-02-22T01:12:28;17.87;;;9.27;;
34491;SDS011;20737;49.908;8.126;2023-02-22T01:14:56;18.23;;;8.87;;
34491;SDS011;20737;49.908;8.126;2023-02-22T01:17:24;21.57;;;10.17;;
34491;SDS011;20737;49.908;8.126;2023-02-22T01:19:52;21.50;;;10.27;;
34491;SDS011;20737;49.908;8.126;2023-02-22T01:22:19;22.93;;;10.20;;
34491;SDS011;20737;49.908;8.126;2023-02-22T01:24:49;20.10;;;9.70;;
34491;SDS011;20737;49.908;8.126;2023-02-22T01:27:16;23.70;;;10.53;;
34491;SDS011;20737;49.908;8.126;2023-02-22T01:29:43;21.80;;;10.60;;
34491;SDS011;20737;49.908;8.126;2023-02-22T01:32:11;24.43;;;11.43;;
34491;SDS011;20737;49.908;8.126;2023-02-22T01:34:38;26.27;;;11.37;;
34491;SDS011;20737;49.908;8.126;2023-02-22T01:37:05;23.17;;;11.23;;
34491;SDS011;20737;49.908;8.126;2023-02-22T01:39:32;23.17;;;10.73;;
34491;SDS011;20737;49.908;8.126;2023-02-22T01:42:00;25.97;;;11.53;;
34491;SDS011;20737;49.908;8.126;2023-02-22T01:44:32;22.63;;;11.30;;
34491;SDS011;20737;49.908;8.126;2023-02-22T01:49:30;24.20;;;10.20;;
34491;SDS011;20737;49.908;8.126;2023-02-22T01:52:01;24.10;;;10.43;;
34491;SDS011;20737;49.908;8.126;2023-02-22T01:54:34;21.40;;;10.33;;
34491;SDS011;20737;49.908;8.126;2023-02-22T01:57:05;25.57;;;9.90;;
34491;SDS011;20737;49.908;8.126;2023-02-22T01:59:39;19.67;;;9.43;;
34491;SDS011;20737;49.908;8.126;2023-02-22T02:02:09;21.73;;;9.90;;
34491;SDS011;20737;49.908;8.126;2023-02-22T02:04:39;22.73;;;11.00;;
34491;SDS011;20737;49.908;8.126;2023-02-22T02:07:08;23.00;;;10.10;;
34491;SDS011;20737;49.908;8.126;2023-02-22T02:09:37;15.37;;;8.67;;
34491;SDS011;20737;49.908;8.126;2023-02-22T02:12:10;21.50;;;10.10;;
34491;SDS011;20737;49.908;8.126;2023-02-22T02:14:39;22.13;;;10.10;;
34491;SDS011;20737;49.908;8.126;2023-02-22T02:17:09;17.53;;;9.23;;
34491;SDS011;20737;49.908;8.126;2023-02-22T02:19:44;20.17;;;9.63;;
34491;SDS011;20737;49.908;8.126;2023-02-22T02:22:29;24.20;;;10.57;;
34491;SDS011;20737;49.908;8.126;2023-02-22T02:25:10;30.97;;;11.50;;
34491;SDS011;20737;49.908;8.126;2023-02-22T02:28:08;17.03;;;9.57;;
34491;SDS011;20737;49.908;8.126;2023-02-22T02:34:01;22.70;;;11.00;;
34491;SDS011;20737;49.908;8.126;2023-02-22T02:36:41;20.97;;;10.83;;
34491;SDS011;20737;49.908;8.126;2023-02-22T02:39:19;21.00;;;9.53;;
34491;SDS011;20737;49.908;8.126;2023-02-22T02:41:52;25.13;;;9.87;;
34491;SDS011;20737;49.908;8.126;2023-02-22T02:44:23;22.83;;;9.20;;
34491;SDS011;20737;49.908;8.126;2023-02-22T02:46:54;21.43;;;10.73;;
34491;SDS011;20737;49.908;8.126;2023-02-22T02:49:30;26.23;;;11.73;;
34491;SDS011;20737;49.908;8.126;2023-02-22T02:52:02;24.10;;;10.43;;
34491;SDS011;20737;49.908;8.126;2023-02-22T02:54:32;20.97;;;10.73;;
34491;SDS011;20737;49.908;8.126;2023-02-22T02:57:02;20.77;;;10.47;;
34491;SDS011;20737;49.908;8.126;2023-02-22T02:59:30;16.30;;;8.93;;
34491;SDS011;20737;49.908;8.126;2023-02-22T03:02:06;20.97;;;10.40;;
34491;SDS011;20737;49.908;8.126;2023-02-22T03:07:37;23.90;;;10.60;;
34491;SDS011;20737;49.908;8.126;2023-02-22T03:10:17;23.70;;;10.70;;
34491;SDS011;20737;49.908;8.126;2023-02-22T03:12:56;18.07;;;9.57;;
34491;SDS011;20737;49.908;8.126;2023-02-22T03:15:31;19.60;;;8.77;;
34491;SDS011;20737;49.908;8.126;2023-02-22T03:18:06;19.40;;;8.37;;
34491;SDS011;20737;49.908;8.126;2023-02-22T03:20:43;23.00;;;9.43;;
34491;SDS011;20737;49.908;8.126;2023-02-22T03:23:19;17.60;;;9.20;;
34491;SDS011;20737;49.908;8.126;2023-02-22T03:25:50;25.93;;;10.07;;
34491;SDS011;20737;49.908;8.126;2023-02-22T03:28:26;28.40;;;11.00;;
34491;SDS011;20737;49.908;8.126;2023-02-22T03:30:57;30.23;;;10.40;;
34491;SDS011;20737;49.908;8.126;2023-02-22T03:33:27;26.80;;;10.17;;
34491;SDS011;20737;49.908;8.126;2023-02-22T03:36:02;30.30;;;11.83;;
34491;SDS011;20737;49.908;8.126;2023-02-22T03:38:33;38.00;;;13.07;;
34491;SDS011;20737;49.908;8.126;2023-02-22T03:41:03;31.20;;;11.57;;
34491;SDS011;20737;49.908;8.126;2023-02-22T03:43:35;23.23;;;10.27;;
34491;SDS011;20737;49.908;8.126;2023-02-22T03:46:05;31.47;;;12.20;;
34491;SDS011;20737;49.908;8.126;2023-02-22T03:48:35;31.70;;;12.23;;
34491;SDS011;20737;49.908;8.126;2023-02-22T03:51:09;25.95;;;11.35;;
34491;SDS011;20737;49.908;8.126;2023-02-22T03:53:39;29.00;;;12.43;;
34491;SDS011;20737;49.908;8.126;2023-02-22T03:56:08;29.60;;;11.10;;
34491;SDS011;20737;49.908;8.126;2023-02-22T03:58:39;25.93;;;11.83;;
34491;SDS011;20737;49.908;8.126;2023-02-22T04:01:09;22.77;;;11.27;;
34491;SDS011;20737;49.908;8.126;2023-02-22T04:03:38;23.73;;;10.57;;
34491;SDS011;20737;49.908;8.126;2023-02-22T04:06:08;23.60;;;10.77;;
34491;SDS011;20737;49.908;8.126;2023-02-22T04:08:37;24.97;;;10.93;;
34491;SDS011;20737;49.908;8.126;2023-02-22T04:11:04;24.03;;;11.77;;
34491;SDS011;20737;49.908;8.126;2023-02-22T04:13:30;25.53;;;10.50;;
34491;SDS011;20737;49.908;8.126;2023-02-22T04:15:57;22.23;;;10.20;;
34491;SDS011;20737;49.908;8.126;2023-02-22T04:18:24;22.20;;;10.73;;
34491;SDS011;20737;49.908;8.126;2023-02-22T04:20:50;33.53;;;10.90;;
34491;SDS011;20737;49.908;8.126;2023-02-22T04:23:19;23.07;;;10.47;;
34491;SDS011;20737;49.908;8.126;2023-02-22T04:25:45;20.50;;;10.53;;
34491;SDS011;20737;49.908;8.126;2023-02-22T04:28:12;27.17;;;10.70;;
34491;SDS011;20737;49.908;8.126;2023-02-22T04:30:39;23.67;;;10.47;;
34491;SDS011;20737;49.908;8.126;2023-02-22T04:33:07;23.13;;;10.80;;
34491;SDS011;20737;49.908;8.126;2023-02-22T04:35:34;34.67;;;11.53;;
34491;SDS011;20737;49.908;8.126;2023-02-22T04:38:01;24.17;;;11.57;;
34491;SDS011;20737;49.908;8.126;2023-02-22T04:40:31;23.47;;;10.70;;
34491;SDS011;20737;49.908;8.126;2023-02-22T04:42:58;31.03;;;12.33;;
34491;SDS011;20737;49.908;8.126;2023-02-22T04:45:28;28.43;;;11.23;;
34491;SDS011;20737;49.908;8.126;2023-02-22T04:47:55;25.73;;;11.33;;
34491;SDS011;20737;49.908;8.126;2023-02-22T04:50:21;33.67;;;11.77;;
34491;SDS011;20737;49.908;8.126;2023-02-22T04:52:48;27.97;;;11.33;;
34491;SDS011;20737;49.908;8.126;2023-02-22T04:55:17;24.63;;;11.47;;
34491;SDS011;20737;49.908;8.126;2023-02-22T04:57:45;26.57;;;11.83;;
34491;SDS011;20737;49.908;8.126;2023-02-22T05:00:15;24.30;;;13.03;;
34491;SDS011;20737;49.908;8.126;2023-02-22T05:02:43;26.93;;;12.07;;
34491;SDS011;20737;49.908;8.126;2023-02-22T05:05:11;27.10;;;11.90;;
34491;SDS011;20737;49.908;8.126;2023-02-22T05:07:38;28.90;;;12.77;;
34491;SDS011;20737;49.908;8.126;2023-02-22T05:10:05;31.70;;;11.27;;
34491;SDS011;20737;49.908;8.126;2023-02-22T05:12:37;24.53;;;12.13;;
34491;SDS011;20737;49.908;8.126;2023-02-22T05:15:06;23.20;;;11.77;;
34491;SDS011;20737;49.908;8.126;2023-02-22T05:17:34;25.13;;;11.83;;
34491;SDS011;20737;49.908;8.126;2023-02-22T05:20:04;29.33;;;11.73;;
34491;SDS011;20737;49.908;8.126;2023-02-22T05:22:32;25.27;;;11.97;;
34491;SDS011;20737;49.908;8.126;2023-02-22T05:25:00;30.20;;;10.83;;
34491;SDS011;20737;49.908;8.126;2023-02-22T05:27:27;28.50;;;11.20;;
34491;SDS011;20737;49.908;8.126;2023-02-22T05:29:54;26.57;;;10.73;;
34491;SDS011;20737;49.908;8.126;2023-02-22T05:32:22;25.50;;;11.33;;
34491;SDS011;20737;49.908;8.126;2023-02-22T05:34:48;28.70;;;10.80;;
34491;SDS011;20737;49.908;8.126;2023-02-22T05:37:15;22.63;;;10.87;;
34491;SDS011;20737;49.908;8.126;2023-02-22T05:39:42;25.17;;;11.30;;
34491;SDS011;20737;49.908;8.126;2023-02-22T05:42:10;26.53;;;11.50;;
34491;SDS011;20737;49.908;8.126;2023-02-22T05:44:37;22.20;;;10.57;;
34491;SDS011;20737;49.908;8.126;2023-02-22T05:47:04;32.47;;;10.83;;
34491;SDS011;20737;49.908;8.126;2023-02-22T05:49:32;24.53;;;11.90;;
34491;SDS011;20737;49.908;8.126;2023-02-22T05:51:58;28.27;;;11.00;;
34491;SDS011;20737;49.908;8.126;2023-02-22T05:54:25;21.63;;;11.37;;
34491;SDS011;20737;49.908;8.126;2023-02-22T05:56:54;29.03;;;10.33;;
34491;SDS011;20737;49.908;8.126;2023-02-22T06:01:54;20.77;;;9.23;;
34491;SDS011;20737;49.908;8.126;2023-02-22T06:04:20;23.00;;;9.10;;
34491;SDS011;20737;49.908;8.126;2023-02-22T06:06:50;20.37;;;10.37;;
34491;SDS011;20737;49.908;8.126;2023-02-22T06:09:17;22.97;;;9.67;;
34491;SDS011;20737;49.908;8.126;2023-02-22T06:11:43;26.37;;;10.20;;
34491;SDS011;20737;49.908;8.126;2023-02-22T06:14:10;20.57;;;10.93;;
34491;SDS011;20737;49.908;8.126;2023-02-22T06:16:37;18.73;;;10.20;;
34491;SDS011;20737;49.908;8.126;2023-02-22T06:19:04;21.57;;;10.63;;
34491;SDS011;20737;49.908;8.126;2023-02-22T06:21:31;23.50;;;11.53;;
34491;SDS011;20737;49.908;8.126;2023-02-22T06:23:59;27.23;;;12.63;;
34491;SDS011;20737;49.908;8.126;2023-02-22T06:26:28;30.70;;;11.93;;
34491;SDS011;20737;49.908;8.126;2023-02-22T06:28:55;28.93;;;12.57;;
34491;SDS011;20737;49.908;8.126;2023-02-22T06:31:21;24.80;;;11.67;;
34491;SDS011;20737;49.908;8.126;2023-02-22T06:33:48;24.70;;;11.47;;
34491;SDS011;20737;49.908;8.126;2023-02-22T06:36:15;23.97;;;11.90;;
34491;SDS011;20737;49.908;8.126;2023-02-22T06:38:41;25.97;;;12.27;;
34491;SDS011;20737;49.908;8.126;2023-02-22T06:41:11;23.77;;;11.57;;
34491;SDS011;20737;49.908;8.126;2023-02-22T06:43:39;27.17;;;12.00;;
34491;SDS011;20737;49.908;8.126;2023-02-22T06:46:08;34.33;;;13.83;;
34491;SDS011;20737;49.908;8.126;2023-02-22T06:48:36;23.60;;;11.50;;
34491;SDS011;20737;49.908;8.126;2023-02-22T06:51:04;29.47;;;11.70;;
34491;SDS011;20737;49.908;8.126;2023-02-22T06:53:35;24.57;;;11.00;;
34491;SDS011;20737;49.908;8.126;2023-02-22T06:56:02;21.60;;;11.87;;
34491;SDS011;20737;49.908;8.126;2023-02-22T06:58:30;24.90;;;11.70;;
34491;SDS011;20737;49.908;8.126;2023-02-22T07:00:57;25.27;;;11.37;;
34491;SDS011;20737;49.908;8.126;2023-02-22T07:03:26;24.67;;;12.13;;
34491;SDS011;20737;49.908;8.126;2023-02-22T07:05:53;29.60;;;12.20;;
34491;SDS011;20737;49.908;8.126;2023-02-22T07:08:20;19.43;;;10.47;;
34491;SDS011;20737;49.908;8.126;2023-02-22T07:10:47;24.13;;;10.37;;
34491;SDS011;20737;49.908;8.126;2023-02-22T07:13:17;17.77;;;10.27;;
34491;SDS011;20737;49.908;8.126;2023-02-22T07:15:45;27.00;;;10.10;;
34491;SDS011;20737;49.908;8.126;2023-02-22T07:18:12;22.93;;;9.90;;
34491;SDS011;20737;49.908;8.126;2023-02-22T07:20:40;21.50;;;10.63;;
34491;SDS011;20737;49.908;8.126;2023-02-22T07:23:07;21.73;;;10.63;;
34491;SDS011;20737;49.908;8.126;2023-02-22T07:25:36;27.23;;;10.23;;
34491;SDS011;20737;49.908;8.126;2023-02-22T07:28:03;20.40;;;10.50;;
34491;SDS011;20737;49.908;8.126;2023-02-22T07:30:31;23.37;;;12.10;;
34491;SDS011;20737;49.908;8.126;2023-02-22T07:33:00;28.03;;;12.10;;
34491;SDS011;20737;49.908;8.126;2023-02-22T07:35:31;27.17;;;12.43;;
34491;SDS011;20737;49.908;8.126;2023-02-22T07:38:00;28.40;;;12.07;;
34491;SDS011;20737;49.908;8.126;2023-02-22T07:40:27;25.97;;;12.30;;
34491;SDS011;20737;49.908;8.126;2023-02-22T07:43:02;22.00;;;11.70;;
34491;SDS011;20737;49.908;8.126;2023-02-22T07:45:30;24.97;;;11.07;;
34491;SDS011;20737;49.908;8.126;2023-02-22T07:48:02;25.17;;;11.47;;
34491;SDS011;20737;49.908;8.126;2023-02-22T07:50:31;27.27;;;12.87;;
34491;SDS011;20737;49.908;8.126;2023-02-22T07:52:59;26.13;;;12.53;;
34491;SDS011;20737;49.908;8.126;2023-02-22T07:55:28;25.63;;;13.17;;
34491;SDS011;20737;49.908;8.126;2023-02-22T07:57:57;24.93;;;12.50;;
34491;SDS011;20737;49.908;8.126;2023-02-22T08:00:26;19.53;;;10.70;;
34491;SDS011;20737;49.908;8.126;2023-02-22T08:02:55;20.30;;;10.80;;
34491;SDS011;20737;49.908;8.126;2023-02-22T08:05:24;18.83;;;10.27;;
34491;SDS011;20737;49.908;8.126;2023-02-22T08:07:52;19.83;;;10.57;;
34491;SDS011;20737;49.908;8.126;2023-02-22T08:10:19;22.07;;;10.47;;
34491;SDS011;20737;49.908;8.126;2023-02-22T08:12:47;20.73;;;10.97;;
34491;SDS011;20737;49.908;8.126;2023-02-22T08:15:16;27.53;;;11.40;;
34491;SDS011;20737;49.908;8.126;2023-02-22T08:17:45;21.17;;;10.97;;
34491;SDS011;20737;49.908;8.126;2023-02-22T08:20:11;21.70;;;11.40;;
34491;SDS011;20737;49.908;8.126;2023-02-22T08:22:42;24.53;;;10.77;;
34491;SDS011;20737;49.908;8.126;2023-02-22T08:25:10;29.47;;;11.67;;
34491;SDS011;20737;49.908;8.126;2023-02-22T08:27:37;20.67;;;11.00;;
34491;SDS011;20737;49.908;8.126;2023-02-22T08:30:04;21.40;;;10.53;;
34491;SDS011;20737;49.908;8.126;2023-02-22T08:32:31;28.70;;;11.80;;
34491;SDS011;20737;49.908;8.126;2023-02-22T08:34:59;27.83;;;13.25;;
34491;SDS011;20737;49.908;8.126;2023-02-22T08:37:27;23.20;;;11.13;;
34491;SDS011;20737;49.908;8.126;2023-02-22T08:40:00;19.83;;;11.37;;
34491;SDS011;20737;49.908;8.126;2023-02-22T08:42:28;20.80;;;10.50;;
34491;SDS011;20737;49.908;8.126;2023-02-22T08:44:55;20.33;;;10.10;;
34491;SDS011;20737;49.908;8.126;2023-02-22T08:47:21;24.53;;;11.90;;
34491;SDS011;20737;49.908;8.126;2023-02-22T08:49:48;30.03;;;11.03;;
34491;SDS011;20737;49.908;8.126;2023-02-22T08:52:15;21.60;;;9.80;;
34491;SDS011;20737;49.908;8.126;2023-02-22T08:54:43;30.17;;;11.73;;
34491;SDS011;20737;49.908;8.126;2023-02-22T08:57:14;32.13;;;11.18;;
34491;SDS011;20737;49.908;8.126;2023-02-22T08:59:43;27.77;;;11.90;;
34491;SDS011;20737;49.908;8.126;2023-02-22T09:02:13;32.75;;;10.43;;
34491;SDS011;20737;49.908;8.126;2023-02-22T09:04:40;19.63;;;10.80;;
34491;SDS011;20737;49.908;8.126;2023-02-22T09:07:07;25.20;;;11.43;;
34491;SDS011;20737;49.908;8.126;2023-02-22T09:09:34;24.92;;;11.10;;
34491;SDS011;20737;49.908;8.126;2023-02-22T09:12:01;30.73;;;13.75;;
34491;SDS011;20737;49.908;8.126;2023-02-22T09:14:29;24.50;;;10.85;;
34491;SDS011;20737;49.908;8.126;2023-02-22T09:16:56;44.80;;;14.60;;
34491;SDS011;20737;49.908;8.126;2023-02-22T09:19:23;29.55;;;12.63;;
34491;SDS011;20737;49.908;8.126;2023-02-22T09:21:52;32.05;;;12.23;;
34491;SDS011;20737;49.908;8.126;2023-02-22T09:24:19;32.25;;;14.05;;
34491;SDS011;20737;49.908;8.126;2023-02-22T09:26:46;38.05;;;13.45;;
34491;SDS011;20737;49.908;8.126;2023-02-22T09:29:18;33.80;;;13.45;;
34491;SDS011;20737;49.908;8.126;2023-02-22T09:31:48;39.55;;;13.65;;
34491;SDS011;20737;49.908;8.126;2023-02-22T09:34:16;33.20;;;12.95;;
34491;SDS011;20737;49.908;8.126;2023-02-22T09:36:44;28.67;;;13.38;;
34491;SDS011;20737;49.908;8.126;2023-02-22T09:41:41;34.00;;;13.40;;
34491;SDS011;20737;49.908;8.126;2023-02-22T09:44:17;30.92;;;13.65;;
34491;SDS011;20737;49.908;8.126;2023-02-22T09:46:50;36.10;;;14.60;;
34491;SDS011;20737;49.908;8.126;2023-02-22T09:49:20;34.10;;;13.75;;
34491;SDS011;20737;49.908;8.126;2023-02-22T09:51:51;32.63;;;13.77;;
34491;SDS011;20737;49.908;8.126;2023-02-22T09:56:55;36.80;;;13.48;;
34491;SDS011;20737;49.908;8.126;2023-02-22T09:59:28;37.08;;;15.07;;
34491;SDS011;20737;49.908;8.126;2023-02-22T10:02:01;36.13;;;15.15;;
34491;SDS011;20737;49.908;8.126;2023-02-22T10:04:40;29.33;;;13.60;;
34491;SDS011;20737;49.908;8.126;2023-02-22T10:07:14;39.00;;;15.13;;
34491;SDS011;20737;49.908;8.126;2023-02-22T10:09:46;31.27;;;14.32;;
34491;SDS011;20737;49.908;8.126;2023-02-22T10:12:17;34.05;;;14.75;;
34491;SDS011;20737;49.908;8.126;2023-02-22T10:15:05;36.45;;;13.88;;
34491;SDS011;20737;49.908;8.126;2023-02-22T10:17:58;28.17;;;14.77;;
34491;SDS011;20737;49.908;8.126;2023-02-22T10:20:41;32.22;;;14.48;;
34491;SDS011;20737;49.908;8.126;2023-02-22T10:23:15;32.10;;;14.63;;
34491;SDS011;20737;49.908;8.126;2023-02-22T10:25:51;32.65;;;15.57;;
34491;SDS011;20737;49.908;8.126;2023-02-22T10:28:22;31.33;;;14.75;;
34491;SDS011;20737;49.908;8.126;2023-02-22T10:30:55;30.77;;;14.40;;
34491;SDS011;20737;49.908;8.126;2023-02-22T10:33:26;28.52;;;13.82;;
34491;SDS011;20737;49.908;8.126;2023-02-22T10:35:58;30.25;;;14.85;;
34491;SDS011;20737;49.908;8.126;2023-02-22T10:38:27;31.05;;;14.05;;
34491;SDS011;20737;49.908;8.126;2023-02-22T10:40:58;28.40;;;14.02;;
34491;SDS011;20737;49.908;8.126;2023-02-22T10:43:42;25.17;;;14.57;;
34491;SDS011;20737;49.908;8.126;2023-02-22T10:46:10;28.75;;;14.93;;
34491;SDS011;20737;49.908;8.126;2023-02-22T10:48:43;29.95;;;14.95;;
34491;SDS011;20737;49.908;8.126;2023-02-22T10:51:12;27.70;;;14.07;;
34491;SDS011;20737;49.908;8.126;2023-02-22T10:53:39;28.15;;;14.15;;
34491;SDS011;20737;49.908;8.126;2023-02-22T10:56:11;23.98;;;13.77;;
34491;SDS011;20737;49.908;8.126;2023-02-22T10:58:42;23.58;;;14.05;;
34491;SDS011;20737;49.908;8.126;2023-02-22T11:01:19;26.40;;;14.45;;
34491;SDS011;20737;49.908;8.126;2023-02-22T11:03:56;25.45;;;13.30;;
34491;SDS011;20737;49.908;8.126;2023-02-22T11:06:24;25.38;;;13.65;;
34491;SDS011;20737;49.908;8.126;2023-02-22T11:08:53;20.52;;;13.73;;
34491;SDS011;20737;49.908;8.126;2023-02-22T11:11:30;23.45;;;13.35;;
34491;SDS011;20737;49.908;8.126;2023-02-22T11:13:58;22.25;;;14.18;;
34491;SDS011;20737;49.908;8.126;2023-02-22T11:16:27;22.30;;;13.68;;
34491;SDS011;20737;49.908;8.126;2023-02-22T11:19:01;17.48;;;12.98;;
34491;SDS011;20737;49.908;8.126;2023-02-22T11:21:32;18.58;;;13.32;;
34491;SDS011;20737;49.908;8.126;2023-02-22T11:24:03;19.45;;;13.13;;
34491;SDS011;20737;49.908;8.126;2023-02-22T11:26:37;19.95;;;12.80;;
34491;SDS011;20737;49.908;8.126;2023-02-22T11:29:10;17.08;;;12.57;;
34491;SDS011;20737;49.908;8.126;2023-02-22T11:31:44;17.95;;;12.77;;
34491;SDS011;20737;49.908;8.126;2023-02-22T11:34:33;19.85;;;13.35;;
34491;SDS011;20737;49.908;8.126;2023-02-22T11:37:15;19.60;;;12.90;;
34491;SDS011;20737;49.908;8.126;2023-02-22T11:39:43;18.27;;;13.60;;
34491;SDS011;20737;49.908;8.126;2023-02-22T11:42:19;19.27;;;13.27;;
34491;SDS011;20737;49.908;8.126;2023-02-22T11:44:47;18.23;;;14.10;;
34491;SDS011;20737;49.908;8.126;2023-02-22T11:47:15;19.85;;;14.55;;
34491;SDS011;20737;49.908;8.126;2023-02-22T11:49:43;20.45;;;13.98;;
34491;SDS011;20737;49.908;8.126;2023-02-22T11:52:15;17.58;;;13.88;;
34491;SDS011;20737;49.908;8.126;2023-02-22T11:57:47;18.17;;;14.57;;
34491;SDS011;20737;49.908;8.126;2023-02-22T12:00:26;17.90;;;13.75;;
34491;SDS011;20737;49.908;8.126;2023-02-22T12:03:18;17.45;;;13.10;;
34491;SDS011;20737;49.908;8.126;2023-02-22T12:05:59;19.80;;;13.30;;
34491;SDS011;20737;49.908;8.126;2023-02-22T12:08:43;18.23;;;14.38;;
34491;SDS011;20737;49.908;8.126;2023-02-22T12:11:16;19.52;;;14.43;;
34491;SDS011;20737;49.908;8.126;2023-02-22T12:13:51;18.10;;;13.90;;
34491;SDS011;20737;49.908;8.126;2023-02-22T12:16:36;18.77;;;14.48;;
34491;SDS011;20737;49.908;8.126;2023-02-22T12:19:29;17.42;;;13.75;;
34491;SDS011;20737;49.908;8.126;2023-02-22T12:22:03;20.75;;;14.60;;
34491;SDS011;20737;49.908;8.126;2023-02-22T12:24:36;19.10;;;14.02;;
34491;SDS011;20737;49.908;8.126;2023-02-22T12:27:06;18.15;;;13.77;;
34491;SDS011;20737;49.908;8.126;2023-02-22T12:29:37;20.17;;;14.13;;
34491;SDS011;20737;49.908;8.126;2023-02-22T12:32:09;20.30;;;13.93;;
34491;SDS011;20737;49.908;8.126;2023-02-22T12:34:42;20.42;;;13.98;;
34491;SDS011;20737;49.908;8.126;2023-02-22T12:37:14;18.63;;;13.73;;
34491;SDS011;20737;49.908;8.126;2023-02-22T12:39:54;18.35;;;12.95;;
34491;SDS011;20737;49.908;8.126;2023-02-22T12:42:26;18.77;;;14.05;;
34491;SDS011;20737;49.908;8.126;2023-02-22T12:45:02;16.58;;;12.82;;
34491;SDS011;20737;49.908;8.126;2023-02-22T12:47:34;17.05;;;13.07;;
34491;SDS011;20737;49.908;8.126;2023-02-22T12:50:09;20.92;;;13.27;;
34491;SDS011;20737;49.908;8.126;2023-02-22T12:52:46;18.58;;;13.52;;
34491;SDS011;20737;49.908;8.126;2023-02-22T12:55:19;17.33;;;13.23;;
34491;SDS011;20737;49.908;8.126;2023-02-22T12:57:51;17.20;;;12.68;;
34491;SDS011;20737;49.908;8.126;2023-02-22T13:00:23;16.80;;;13.25;;
34491;SDS011;20737;49.908;8.126;2023-02-22T13:02:59;20.95;;;14.93;;
34491;SDS011;20737;49.908;8.126;2023-02-22T13:05:31;19.55;;;14.25;;
34491;SDS011;20737;49.908;8.126;2023-02-22T13:08:07;19.15;;;13.85;;
34491;SDS011;20737;49.908;8.126;2023-02-22T13:10:55;20.35;;;13.68;;
34491;SDS011;20737;49.908;8.126;2023-02-22T13:13:32;21.38;;;13.32;;
34491;SDS011;20737;49.908;8.126;2023-02-22T13:16:09;19.77;;;14.05;;
34491;SDS011;20737;49.908;8.126;2023-02-22T13:18:48;17.85;;;12.90;;
34491;SDS011;20737;49.908;8.126;2023-02-22T13:21:22;21.50;;;13.60;;
34491;SDS011;20737;49.908;8.126;2023-02-22T13:23:55;20.67;;;13.80;;
34491;SDS011;20737;49.908;8.126;2023-02-22T13:26:29;20.85;;;13.80;;
34491;SDS011;20737;49.908;8.126;2023-02-22T13:31:38;19.48;;;14.35;;
34491;SDS011;20737;49.908;8.126;2023-02-22T13:37:13;23.60;;;14.38;;
34491;SDS011;20737;49.908;8.126;2023-02-22T13:40:03;18.45;;;13.70;;
34491;SDS011;20737;49.908;8.126;2023-02-22T13:42:56;24.38;;;14.38;;
34491;SDS011;20737;49.908;8.126;2023-02-22T13:45:51;22.17;;;13.57;;
34491;SDS011;20737;49.908;8.126;2023-02-22T13:51:31;23.45;;;13.63;;
34491;SDS011;20737;49.908;8.126;2023-02-22T13:54:06;21.33;;;13.55;;
34491;SDS011;20737;49.908;8.126;2023-02-22T13:56:41;18.77;;;13.82;;
34491;SDS011;20737;49.908;8.126;2023-02-22T13:59:20;20.88;;;13.52;;
34491;SDS011;20737;49.908;8.126;2023-02-22T14:01:52;22.65;;;14.27;;
34491;SDS011;20737;49.908;8.126;2023-02-22T14:13:20;21.25;;;14.60;;
34491;SDS011;20737;49.908;8.126;2023-02-22T14:18:42;22.17;;;13.80;;
34491;SDS011;20737;49.908;8.126;2023-02-22T14:21:13;23.90;;;14.90;;
34491;SDS011;20737;49.908;8.126;2023-02-22T14:23:41;24.40;;;15.05;;
34491;SDS011;20737;49.908;8.126;2023-02-22T14:26:10;24.48;;;14.40;;
34491;SDS011;20737;49.908;8.126;2023-02-22T14:28:44;22.88;;;15.63;;
34491;SDS011;20737;49.908;8.126;2023-02-22T14:31:18;20.40;;;14.10;;
34491;SDS011;20737;49.908;8.126;2023-02-22T14:33:54;23.05;;;14.65;;
34491;SDS011;20737;49.908;8.126;2023-02-22T14:36:35;27.38;;;15.73;;
34491;SDS011;20737;49.908;8.126;2023-02-22T14:39:12;23.40;;;14.63;;
34491;SDS011;20737;49.908;8.126;2023-02-22T14:41:50;22.83;;;14.60;;
34491;SDS011;20737;49.908;8.126;2023-02-22T14:44:23;21.83;;;15.57;;
34491;SDS011;20737;49.908;8.126;2023-02-22T14:46:55;25.10;;;15.55;;
34491;SDS011;20737;49.908;8.126;2023-02-22T14:49:26;25.33;;;15.23;;
34491;SDS011;20737;49.908;8.126;2023-02-22T14:51:59;23.83;;;15.13;;
34491;SDS011;20737;49.908;8.126;2023-02-22T14:54:34;21.05;;;14.13;;
34491;SDS011;20737;49.908;8.126;2023-02-22T14:57:11;21.55;;;15.43;;
34491;SDS011;20737;49.908;8.126;2023-02-22T15:02:44;22.15;;;15.57;;
34491;SDS011;20737;49.908;8.126;2023-02-22T15:05:13;23.83;;;15.52;;
34491;SDS011;20737;49.908;8.126;2023-02-22T15:07:48;22.75;;;15.23;;
34491;SDS011;20737;49.908;8.126;2023-02-22T15:10:21;22.85;;;14.90;;
34491;SDS011;20737;49.908;8.126;2023-02-22T15:12:54;23.40;;;14.85;;
34491;SDS011;20737;49.908;8.126;2023-02-22T15:15:34;25.92;;;15.77;;
34491;SDS011;20737;49.908;8.126;2023-02-22T15:18:11;23.80;;;15.52;;
34491;SDS011;20737;49.908;8.126;2023-02-22T15:20:50;29.75;;;16.92;;
34491;SDS011;20737;49.908;8.126;2023-02-22T15:23:23;24.25;;;15.30;;
34491;SDS011;20737;49.908;8.126;2023-02-22T15:25:54;21.47;;;16.03;;
34491;SDS011;20737;49.908;8.126;2023-02-22T15:28:23;22.45;;;14.65;;